sensor_id;sensor_type;location;lat;lon;timestamp;temperature;humidity
17333;DHT22;8784;50.94667800;7.08448400;2023-03-16T00:01:32;4.20;94.00
17333;DHT22;8784;50.94667800;7.08448400;2023-03-16T00:03:59;4.10;94.10
17333;DHT22;8784;50.94667800;7.08448400;2023-03-16T00:06:28;4.10;94.20
17333;DHT22;8784;50.94667800;7.08448400;2023-03-16T00:08:55;5.00;94.60
17333;DHT22;8784;50.94667800;7.08448400;2023-03-16T00:11:23;4.00;94.40
17333;DHT22;8784;50.94667800;7.08448400;2023-03-16T00:13:50;4.00;94.60
17333;DHT22;8784;50.94667800;7.08448400;2023-03-16T00:16:18;3.90;94.70
17333;DHT22;8784;50.94667800;7.08448400;2023-03-16T00:18:45;3.90;94.70
17333;DHT22;8784;50.94667800;7.08448400;2023-03-16T00:21:13;4.40;95.00
17333;DHT22;8784;50.94667800;7.08448400;2023-03-16T00:23:42;4.70;95.00
17333;DHT22;8784;50.94667800;7.08448400;2023-03-16T00:26:09;3.90;94.80
17333;DHT22;8784;50.94667800;7.08448400;2023-03-16T00:28:37;3.80;95.00
17333;DHT22;8784;50.94667800;7.08448400;2023-03-16T00:31:07;4.00;95.10
17333;DHT22;8784;50.94667800;7.08448400;2023-03-16T00:33:37;3.90;95.30
17333;DHT22;8784;50.94667800;7.08448400;2023-03-16T00:36:05;4.00;95.30
17333;DHT22;8784;50.94667800;7.08448400;2023-03-16T00:38:36;3.90;95.20
17333;DHT22;8784;50.94667800;7.08448400;2023-03-16T00:41:06;5.60;95.90
17333;DHT22;8784;50.94667800;7.08448400;2023-03-16T00:43:35;4.90;96.00
17333;DHT22;8784;50.94667800;7.08448400;2023-03-16T00:46:06;4.00;95.50
17333;DHT22;8784;50.94667800;7.08448400;2023-03-16T00:48:36;4.00;95.60
17333;DHT22;8784;50.94667800;7.08448400;2023-03-16T00:51:05;3.90;95.60
17333;DHT22;8784;50.94667800;7.08448400;2023-03-16T00:53:34;3.90;95.80
17333;DHT22;8784;50.94667800;7.08448400;2023-03-16T00:56:05;4.40;95.80
17333;DHT22;8784;50.94667800;7.08448400;2023-03-16T00:58:35;3.90;95.70
17333;DHT22;8784;50.94667800;7.08448400;2023-03-16T01:01:04;4.00;95.80
17333;DHT22;8784;50.94667800;7.08448400;2023-03-16T01:03:32;3.90;95.80
17333;DHT22;8784;50.94667800;7.08448400;2023-03-16T01:06:03;4.70;96.10
17333;DHT22;8784;50.94667800;7.08448400;2023-03-16T01:08:30;4.00;95.90
17333;DHT22;8784;50.94667800;7.08448400;2023-03-16T01:11:01;4.10;95.90
17333;DHT22;8784;50.94667800;7.08448400;2023-03-16T01:13:30;4.10;96.00
17333;DHT22;8784;50.94667800;7.08448400;2023-03-16T01:15:58;4.50;96.10
17333;DHT22;8784;50.94667800;7.08448400;2023-03-16T01:18:28;4.20;96.10
17333;DHT22;8784;50.94667800;7.08448400;2023-03-16T01:20:58;4.10;96.20
17333;DHT22;8784;50.94667800;7.08448400;2023-03-16T01:23:26;4.10;96.30
17333;DHT22;8784;50.94667800;7.08448400;2023-03-16T01:25:56;4.80;96.40
17333;DHT22;8784;50.94667800;7.08448400;2023-03-16T01:28:25;4.20;96.10
17333;DHT22;8784;50.94667800;7.08448400;2023-03-16T01:30:58;4.20;96.10
17333;DHT22;8784;50.94667800;7.08448400;2023-03-16T01:33:27;4.00;96.00
17333;DHT22;8784;50.94667800;7.08448400;2023-03-16T01:35:55;4.10;96.10
17333;DHT22;8784;50.94667800;7.08448400;2023-03-16T01:38:22;4.50;96.20
17333;DHT22;8784;50.94667800;7.08448400;2023-03-16T01:40:51;4.20;96.20
17333;DHT22;8784;50.94667800;7.08448400;2023-03-16T01:43:21;4.00;96.20
17333;DHT22;8784;50.94667800;7.08448400;2023-03-16T01:46:19;4.20;96.30
17333;DHT22;8784;50.94667800;7.08448400;2023-03-16T01:48:51;4.30;96.30
17333;DHT22;8784;50.94667800;7.08448400;2023-03-16T01:51:23;4.20;96.20
17333;DHT22;8784;50.94667800;7.08448400;2023-03-16T01:53:54;4.30;96.20
17333;DHT22;8784;50.94667800;7.08448400;2023-03-16T01:56:24;4.30;96.20
17333;DHT22;8784;50.94667800;7.08448400;2023-03-16T01:58:55;5.90;96.60
17333;DHT22;8784;50.94667800;7.08448400;2023-03-16T02:01:26;4.30;96.30
17333;DHT22;8784;50.94667800;7.08448400;2023-03-16T02:03:56;4.30;96.20
17333;DHT22;8784;50.94667800;7.08448400;2023-03-16T02:06:25;4.30;96.10
17333;DHT22;8784;50.94667800;7.08448400;2023-03-16T02:08:55;4.20;96.20
17333;DHT22;8784;50.94667800;7.08448400;2023-03-16T02:11:23;4.20;96.20
17333;DHT22;8784;50.94667800;7.08448400;2023-03-16T02:13:51;4.20;96.20
17333;DHT22;8784;50.94667800;7.08448400;2023-03-16T02:16:18;4.20;96.10
17333;DHT22;8784;50.94667800;7.08448400;2023-03-16T02:18:49;4.30;96.30
17333;DHT22;8784;50.94667800;7.08448400;2023-03-16T02:21:21;4.10;96.20
17333;DHT22;8784;50.94667800;7.08448400;2023-03-16T02:23:51;4.10;96.20
17333;DHT22;8784;50.94667800;7.08448400;2023-03-16T02:26:25;4.10;96.20
17333;DHT22;8784;50.94667800;7.08448400;2023-03-16T02:29:13;5.60;96.70
17333;DHT22;8784;50.94667800;7.08448400;2023-03-16T02:31:43;4.10;96.30
17333;DHT22;8784;50.94667800;7.08448400;2023-03-16T02:34:12;4.10;96.30
17333;DHT22;8784;50.94667800;7.08448400;2023-03-16T02:36:41;4.10;96.30
17333;DHT22;8784;50.94667800;7.08448400;2023-03-16T02:39:10;4.10;96.40
17333;DHT22;8784;50.94667800;7.08448400;2023-03-16T02:41:37;5.00;96.60
17333;DHT22;8784;50.94667800;7.08448400;2023-03-16T02:44:09;4.10;96.40
17333;DHT22;8784;50.94667800;7.08448400;2023-03-16T02:46:39;4.10;96.30
17333;DHT22;8784;50.94667800;7.08448400;2023-03-16T02:49:14;4.10;96.40
17333;DHT22;8784;50.94667800;7.08448400;2023-03-16T02:51:43;4.10;96.30
17333;DHT22;8784;50.94667800;7.08448400;2023-03-16T02:54:11;4.10;96.40
17333;DHT22;8784;50.94667800;7.08448400;2023-03-16T02:56:39;4.10;96.40
17333;DHT22;8784;50.94667800;7.08448400;2023-03-16T02:59:06;4.20;96.40
17333;DHT22;8784;50.94667800;7.08448400;2023-03-16T03:01:34;4.00;96.40
17333;DHT22;8784;50.94667800;7.08448400;2023-03-16T03:04:01;4.00;96.40
17333;DHT22;8784;50.94667800;7.08448400;2023-03-16T03:06:30;4.00;96.50
17333;DHT22;8784;50.94667800;7.08448400;2023-03-16T03:08:58;4.00;96.50
17333;DHT22;8784;50.94667800;7.08448400;2023-03-16T03:11:26;4.00;96.60
17333;DHT22;8784;50.94667800;7.08448400;2023-03-16T03:13:54;4.50;96.80
17333;DHT22;8784;50.94667800;7.08448400;2023-03-16T03:16:21;5.00;96.80
17333;DHT22;8784;50.94667800;7.08448400;2023-03-16T03:18:48;4.10;96.50
17333;DHT22;8784;50.94667800;7.08448400;2023-03-16T03:21:17;4.10;96.60
17333;DHT22;8784;50.94667800;7.08448400;2023-03-16T03:23:46;4.10;96.50
17333;DHT22;8784;50.94667800;7.08448400;2023-03-16T03:26:13;4.10;96.40
17333;DHT22;8784;50.94667800;7.08448400;2023-03-16T03:28:41;4.20;96.50
17333;DHT22;8784;50.94667800;7.08448400;2023-03-16T03:31:13;4.10;96.50
17333;DHT22;8784;50.94667800;7.08448400;2023-03-16T03:33:42;4.10;96.40
17333;DHT22;8784;50.94667800;7.08448400;2023-03-16T03:36:09;4.00;96.40
17333;DHT22;8784;50.94667800;7.08448400;2023-03-16T03:38:38;4.20;96.50
17333;DHT22;8784;50.94667800;7.08448400;2023-03-16T03:41:10;4.70;96.70
17333;DHT22;8784;50.94667800;7.08448400;2023-03-16T03:43:37;4.20;96.50
17333;DHT22;8784;50.94667800;7.08448400;2023-03-16T03:46:05;4.30;96.50
17333;DHT22;8784;50.94667800;7.08448400;2023-03-16T03:48:32;4.40;96.40
17333;DHT22;8784;50.94667800;7.08448400;2023-03-16T03:51:00;4.20;96.40
17333;DHT22;8784;50.94667800;7.08448400;2023-03-16T03:53:27;4.60;96.50
17333;DHT22;8784;50.94667800;7.08448400;2023-03-16T03:55:54;4.20;96.50
17333;DHT22;8784;50.94667800;7.08448400;2023-03-16T03:58:24;4.10;96.50
17333;DHT22;8784;50.94667800;7.08448400;2023-03-16T04:00:51;4.20;96.60
17333;DHT22;8784;50.94667800;7.08448400;2023-03-16T04:03:19;4.20;96.50
17333;DHT22;8784;50.94667800;7.08448400;2023-03-16T04:05:46;4.10;96.60
17333;DHT22;8784;50.94667800;7.08448400;2023-03-16T04:08:13;4.10;96.60
17333;DHT22;8784;50.94667800;7.08448400;2023-03-16T04:10:40;4.10;96.60
17333;DHT22;8784;50.94667800;7.08448400;2023-03-16T04:13:08;4.10;96.60
17333;DHT22;8784;50.94667800;7.08448400;2023-03-16T04:15:36;4.20;96.60
17333;DHT22;8784;50.94667800;7.08448400;2023-03-16T04:18:04;4.70;96.70
17333;DHT22;8784;50.94667800;7.08448400;2023-03-16T04:20:33;4.10;96.60
17333;DHT22;8784;50.94667800;7.08448400;2023-03-16T04:23:00;4.10;96.70
17333;DHT22;8784;50.94667800;7.08448400;2023-03-16T04:25:28;4.10;96.70
17333;DHT22;8784;50.94667800;7.08448400;2023-03-16T04:27:55;3.00;96.40
17333;DHT22;8784;50.94667800;7.08448400;2023-03-16T04:30:22;4.10;96.70
17333;DHT22;8784;50.94667800;7.08448400;2023-03-16T04:32:50;4.10;96.80
17333;DHT22;8784;50.94667800;7.08448400;2023-03-16T04:35:18;4.10;96.90
17333;DHT22;8784;50.94667800;7.08448400;2023-03-16T04:38:01;4.00;96.90
17333;DHT22;8784;50.94667800;7.08448400;2023-03-16T04:40:28;4.00;96.90
17333;DHT22;8784;50.94667800;7.08448400;2023-03-16T04:42:55;4.10;96.90
17333;DHT22;8784;50.94667800;7.08448400;2023-03-16T04:45:22;4.40;97.10
17333;DHT22;8784;50.94667800;7.08448400;2023-03-16T04:47:49;4.00;97.00
17333;DHT22;8784;50.94667800;7.08448400;2023-03-16T04:50:15;4.00;97.10
17333;DHT22;8784;50.94667800;7.08448400;2023-03-16T04:52:42;4.00;97.10
17333;DHT22;8784;50.94667800;7.08448400;2023-03-16T04:55:11;4.10;97.30
17333;DHT22;8784;50.94667800;7.08448400;2023-03-16T04:57:37;4.10;97.30
17333;DHT22;8784;50.94667800;7.08448400;2023-03-16T05:00:05;4.10;97.20
17333;DHT22;8784;50.94667800;7.08448400;2023-03-16T05:02:36;4.10;97.20
17333;DHT22;8784;50.94667800;7.08448400;2023-03-16T05:05:03;4.20;97.50
17333;DHT22;8784;50.94667800;7.08448400;2023-03-16T05:07:30;4.20;97.40
17333;DHT22;8784;50.94667800;7.08448400;2023-03-16T05:09:57;4.30;97.30
17333;DHT22;8784;50.94667800;7.08448400;2023-03-16T05:12:26;4.20;97.30
17333;DHT22;8784;50.94667800;7.08448400;2023-03-16T05:14:53;4.20;97.40
17333;DHT22;8784;50.94667800;7.08448400;2023-03-16T05:17:19;4.20;97.40
17333;DHT22;8784;50.94667800;7.08448400;2023-03-16T05:19:46;4.30;97.40
17333;DHT22;8784;50.94667800;7.08448400;2023-03-16T05:22:15;4.30;97.50
17333;DHT22;8784;50.94667800;7.08448400;2023-03-16T05:24:42;4.30;97.50
17333;DHT22;8784;50.94667800;7.08448400;2023-03-16T05:27:08;4.30;97.40
17333;DHT22;8784;50.94667800;7.08448400;2023-03-16T05:29:37;4.30;97.40
17333;DHT22;8784;50.94667800;7.08448400;2023-03-16T05:32:04;4.30;97.50
17333;DHT22;8784;50.94667800;7.08448400;2023-03-16T05:34:32;4.30;97.60
17333;DHT22;8784;50.94667800;7.08448400;2023-03-16T05:36:58;4.40;97.80
17333;DHT22;8784;50.94667800;7.08448400;2023-03-16T05:39:25;4.40;97.70
17333;DHT22;8784;50.94667800;7.08448400;2023-03-16T05:41:53;4.40;97.70
17333;DHT22;8784;50.94667800;7.08448400;2023-03-16T05:44:20;4.40;97.70
17333;DHT22;8784;50.94667800;7.08448400;2023-03-16T05:46:48;4.40;97.70
17333;DHT22;8784;50.94667800;7.08448400;2023-03-16T05:49:15;4.40;97.70
17333;DHT22;8784;50.94667800;7.08448400;2023-03-16T05:51:42;4.50;97.70
17333;DHT22;8784;50.94667800;7.08448400;2023-03-16T05:54:09;4.50;97.70
17333;DHT22;8784;50.94667800;7.08448400;2023-03-16T05:56:36;4.50;97.70
17333;DHT22;8784;50.94667800;7.08448400;2023-03-16T05:59:03;4.60;97.70
17333;DHT22;8784;50.94667800;7.08448400;2023-03-16T06:01:30;4.60;97.80
17333;DHT22;8784;50.94667800;7.08448400;2023-03-16T06:03:59;4.60;97.80
17333;DHT22;8784;50.94667800;7.08448400;2023-03-16T06:06:27;4.60;97.70
17333;DHT22;8784;50.94667800;7.08448400;2023-03-16T06:08:54;4.70;97.80
17333;DHT22;8784;50.94667800;7.08448400;2023-03-16T06:11:21;4.60;97.70
17333;DHT22;8784;50.94667800;7.08448400;2023-03-16T06:13:48;4.60;97.70
17333;DHT22;8784;50.94667800;7.08448400;2023-03-16T06:16:15;4.70;97.70
17333;DHT22;8784;50.94667800;7.08448400;2023-03-16T06:18:42;4.70;97.70
17333;DHT22;8784;50.94667800;7.08448400;2023-03-16T06:21:10;4.80;97.70
17333;DHT22;8784;50.94667800;7.08448400;2023-03-16T06:23:37;4.80;97.70
17333;DHT22;8784;50.94667800;7.08448400;2023-03-16T06:26:04;4.80;97.70
17333;DHT22;8784;50.94667800;7.08448400;2023-03-16T06:28:31;4.80;97.60
17333;DHT22;8784;50.94667800;7.08448400;2023-03-16T06:30:58;4.80;97.70
17333;DHT22;8784;50.94667800;7.08448400;2023-03-16T06:33:25;4.90;98.00
17333;DHT22;8784;50.94667800;7.08448400;2023-03-16T06:35:52;5.00;97.80
17333;DHT22;8784;50.94667800;7.08448400;2023-03-16T06:38:20;5.00;97.80
17333;DHT22;8784;50.94667800;7.08448400;2023-03-16T06:40:50;5.10;97.70
17333;DHT22;8784;50.94667800;7.08448400;2023-03-16T06:43:17;5.20;97.70
17333;DHT22;8784;50.94667800;7.08448400;2023-03-16T06:45:44;5.20;97.50
17333;DHT22;8784;50.94667800;7.08448400;2023-03-16T06:48:11;5.20;97.30
17333;DHT22;8784;50.94667800;7.08448400;2023-03-16T06:50:38;5.30;97.60
17333;DHT22;8784;50.94667800;7.08448400;2023-03-16T06:53:05;5.30;97.40
17333;DHT22;8784;50.94667800;7.08448400;2023-03-16T06:55:33;5.20;97.40
17333;DHT22;8784;50.94667800;7.08448400;2023-03-16T06:58:00;5.20;97.40
17333;DHT22;8784;50.94667800;7.08448400;2023-03-16T07:00:27;5.30;97.40
17333;DHT22;8784;50.94667800;7.08448400;2023-03-16T07:02:55;5.40;97.60
17333;DHT22;8784;50.94667800;7.08448400;2023-03-16T07:05:22;5.50;97.40
17333;DHT22;8784;50.94667800;7.08448400;2023-03-16T07:07:49;5.50;97.30
17333;DHT22;8784;50.94667800;7.08448400;2023-03-16T07:10:16;5.50;97.10
17333;DHT22;8784;50.94667800;7.08448400;2023-03-16T07:12:45;5.50;97.20
17333;DHT22;8784;50.94667800;7.08448400;2023-03-16T07:15:12;5.60;97.20
17333;DHT22;8784;50.94667800;7.08448400;2023-03-16T07:17:40;5.60;97.20
17333;DHT22;8784;50.94667800;7.08448400;2023-03-16T07:20:09;5.70;97.20
17333;DHT22;8784;50.94667800;7.08448400;2023-03-16T07:22:38;5.80;97.20
17333;DHT22;8784;50.94667800;7.08448400;2023-03-16T07:25:07;5.90;97.00
17333;DHT22;8784;50.94667800;7.08448400;2023-03-16T07:27:35;5.90;96.90
17333;DHT22;8784;50.94667800;7.08448400;2023-03-16T07:30:05;6.00;96.90
17333;DHT22;8784;50.94667800;7.08448400;2023-03-16T07:32:33;6.00;96.80
17333;DHT22;8784;50.94667800;7.08448400;2023-03-16T07:35:00;6.10;96.80
17333;DHT22;8784;50.94667800;7.08448400;2023-03-16T07:37:26;6.10;96.80
17333;DHT22;8784;50.94667800;7.08448400;2023-03-16T07:39:53;6.20;96.70
17333;DHT22;8784;50.94667800;7.08448400;2023-03-16T07:42:20;6.30;96.60
17333;DHT22;8784;50.94667800;7.08448400;2023-03-16T07:44:48;6.20;96.60
17333;DHT22;8784;50.94667800;7.08448400;2023-03-16T07:47:18;6.30;96.70
17333;DHT22;8784;50.94667800;7.08448400;2023-03-16T07:49:45;6.50;96.80
17333;DHT22;8784;50.94667800;7.08448400;2023-03-16T07:52:12;6.50;96.40
17333;DHT22;8784;50.94667800;7.08448400;2023-03-16T07:54:39;6.60;96.50
17333;DHT22;8784;50.94667800;7.08448400;2023-03-16T07:57:06;6.80;96.20
17333;DHT22;8784;50.94667800;7.08448400;2023-03-16T07:59:33;6.80;96.20
17333;DHT22;8784;50.94667800;7.08448400;2023-03-16T08:02:00;6.90;96.10
17333;DHT22;8784;50.94667800;7.08448400;2023-03-16T08:04:28;7.10;96.10
17333;DHT22;8784;50.94667800;7.08448400;2023-03-16T08:06:55;7.30;96.20
17333;DHT22;8784;50.94667800;7.08448400;2023-03-16T08:09:25;7.40;95.60
17333;DHT22;8784;50.94667800;7.08448400;2023-03-16T08:11:52;7.50;95.20
17333;DHT22;8784;50.94667800;7.08448400;2023-03-16T08:14:19;7.50;95.30
17333;DHT22;8784;50.94667800;7.08448400;2023-03-16T08:16:45;7.50;95.10
17333;DHT22;8784;50.94667800;7.08448400;2023-03-16T08:19:12;7.60;95.20
17333;DHT22;8784;50.94667800;7.08448400;2023-03-16T08:21:41;7.70;95.00
17333;DHT22;8784;50.94667800;7.08448400;2023-03-16T08:24:08;7.70;94.80
17333;DHT22;8784;50.94667800;7.08448400;2023-03-16T08:27:07;7.80;94.80
17333;DHT22;8784;50.94667800;7.08448400;2023-03-16T08:29:34;7.90;94.50
17333;DHT22;8784;50.94667800;7.08448400;2023-03-16T08:32:02;8.00;94.60
17333;DHT22;8784;50.94667800;7.08448400;2023-03-16T08:34:29;8.20;94.40
17333;DHT22;8784;50.94667800;7.08448400;2023-03-16T08:36:58;8.20;94.00
17333;DHT22;8784;50.94667800;7.08448400;2023-03-16T08:39:25;8.30;94.30
17333;DHT22;8784;50.94667800;7.08448400;2023-03-16T08:41:53;8.30;94.00
17333;DHT22;8784;50.94667800;7.08448400;2023-03-16T08:44:21;8.40;93.90
17333;DHT22;8784;50.94667800;7.08448400;2023-03-16T08:46:48;8.50;93.80
17333;DHT22;8784;50.94667800;7.08448400;2023-03-16T08:49:16;8.60;93.50
17333;DHT22;8784;50.94667800;7.08448400;2023-03-16T08:51:45;8.70;93.50
17333;DHT22;8784;50.94667800;7.08448400;2023-03-16T08:54:13;8.70;93.40
17333;DHT22;8784;50.94667800;7.08448400;2023-03-16T08:56:40;8.90;93.40
17333;DHT22;8784;50.94667800;7.08448400;2023-03-16T08:59:07;9.00;92.90
17333;DHT22;8784;50.94667800;7.08448400;2023-03-16T09:01:34;9.10;93.00
17333;DHT22;8784;50.94667800;7.08448400;2023-03-16T09:04:01;9.10;92.70
17333;DHT22;8784;50.94667800;7.08448400;2023-03-16T09:06:29;9.10;92.60
17333;DHT22;8784;50.94667800;7.08448400;2023-03-16T09:08:56;9.00;92.50
17333;DHT22;8784;50.94667800;7.08448400;2023-03-16T09:11:24;9.00;92.60
17333;DHT22;8784;50.94667800;7.08448400;2023-03-16T09:13:55;9.20;92.70
17333;DHT22;8784;50.94667800;7.08448400;2023-03-16T09:16:22;9.20;92.40
17333;DHT22;8784;50.94667800;7.08448400;2023-03-16T09:18:50;9.20;92.00
17333;DHT22;8784;50.94667800;7.08448400;2023-03-16T09:21:17;9.10;91.80
17333;DHT22;8784;50.94667800;7.08448400;2023-03-16T09:23:44;9.10;92.10
17333;DHT22;8784;50.94667800;7.08448400;2023-03-16T09:26:12;9.20;91.90
17333;DHT22;8784;50.94667800;7.08448400;2023-03-16T09:28:41;9.20;92.10
17333;DHT22;8784;50.94667800;7.08448400;2023-03-16T09:31:12;9.40;91.70
17333;DHT22;8784;50.94667800;7.08448400;2023-03-16T09:33:41;9.40;91.50
17333;DHT22;8784;50.94667800;7.08448400;2023-03-16T09:36:08;9.70;91.60
17333;DHT22;8784;50.94667800;7.08448400;2023-03-16T09:38:36;10.30;91.30
17333;DHT22;8784;50.94667800;7.08448400;2023-03-16T09:41:07;11.10;90.50
17333;DHT22;8784;50.94667800;7.08448400;2023-03-16T09:43:44;11.70;88.80
17333;DHT22;8784;50.94667800;7.08448400;2023-03-16T09:46:23;12.20;87.30
17333;DHT22;8784;50.94667800;7.08448400;2023-03-16T09:48:50;12.40;85.20
17333;DHT22;8784;50.94667800;7.08448400;2023-03-16T09:51:20;11.80;84.20
17333;DHT22;8784;50.94667800;7.08448400;2023-03-16T09:53:50;11.50;85.20
17333;DHT22;8784;50.94667800;7.08448400;2023-03-16T09:56:26;11.30;85.50
17333;DHT22;8784;50.94667800;7.08448400;2023-03-16T09:58:57;11.10;85.00
17333;DHT22;8784;50.94667800;7.08448400;2023-03-16T10:01:35;11.00;85.30
17333;DHT22;8784;50.94667800;7.08448400;2023-03-16T10:04:11;11.00;86.30
17333;DHT22;8784;50.94667800;7.08448400;2023-03-16T10:06:46;11.00;85.20
17333;DHT22;8784;50.94667800;7.08448400;2023-03-16T10:09:24;11.00;84.80
17333;DHT22;8784;50.94667800;7.08448400;2023-03-16T10:11:54;10.90;84.90
17333;DHT22;8784;50.94667800;7.08448400;2023-03-16T10:14:27;10.70;85.00
17333;DHT22;8784;50.94667800;7.08448400;2023-03-16T10:17:00;10.60;84.50
17333;DHT22;8784;50.94667800;7.08448400;2023-03-16T10:19:33;10.40;84.80
17333;DHT22;8784;50.94667800;7.08448400;2023-03-16T10:22:13;10.30;85.50
17333;DHT22;8784;50.94667800;7.08448400;2023-03-16T10:24:47;10.30;85.70
17333;DHT22;8784;50.94667800;7.08448400;2023-03-16T10:27:21;10.30;85.60
17333;DHT22;8784;50.94667800;7.08448400;2023-03-16T10:29:51;10.30;85.60
17333;DHT22;8784;50.94667800;7.08448400;2023-03-16T10:32:18;10.30;85.40
17333;DHT22;8784;50.94667800;7.08448400;2023-03-16T10:34:51;10.10;85.00
17333;DHT22;8784;50.94667800;7.08448400;2023-03-16T10:37:19;10.20;85.60
17333;DHT22;8784;50.94667800;7.08448400;2023-03-16T10:39:47;10.20;85.50
17333;DHT22;8784;50.94667800;7.08448400;2023-03-16T10:42:16;10.30;85.60
17333;DHT22;8784;50.94667800;7.08448400;2023-03-16T10:44:44;10.30;85.10
17333;DHT22;8784;50.94667800;7.08448400;2023-03-16T10:47:20;10.40;85.30
17333;DHT22;8784;50.94667800;7.08448400;2023-03-16T10:49:47;10.50;85.10
17333;DHT22;8784;50.94667800;7.08448400;2023-03-16T10:52:18;10.80;85.40
17333;DHT22;8784;50.94667800;7.08448400;2023-03-16T10:54:48;11.00;85.50
17333;DHT22;8784;50.94667800;7.08448400;2023-03-16T10:57:24;11.20;84.70
17333;DHT22;8784;50.94667800;7.08448400;2023-03-16T10:59:53;11.40;84.00
17333;DHT22;8784;50.94667800;7.08448400;2023-03-16T11:02:24;11.70;84.40
17333;DHT22;8784;50.94667800;7.08448400;2023-03-16T11:04:56;12.00;83.00
17333;DHT22;8784;50.94667800;7.08448400;2023-03-16T11:07:23;12.20;82.30
17333;DHT22;8784;50.94667800;7.08448400;2023-03-16T11:09:52;12.20;80.90
17333;DHT22;8784;50.94667800;7.08448400;2023-03-16T11:12:23;12.20;81.50
17333;DHT22;8784;50.94667800;7.08448400;2023-03-16T11:14:51;12.30;81.60
17333;DHT22;8784;50.94667800;7.08448400;2023-03-16T11:17:27;12.40;81.50
17333;DHT22;8784;50.94667800;7.08448400;2023-03-16T11:20:01;12.40;81.40
17333;DHT22;8784;50.94667800;7.08448400;2023-03-16T11:22:31;12.20;81.00
17333;DHT22;8784;50.94667800;7.08448400;2023-03-16T11:25:07;12.20;81.20
17333;DHT22;8784;50.94667800;7.08448400;2023-03-16T11:27:42;12.20;80.10
17333;DHT22;8784;50.94667800;7.08448400;2023-03-16T11:30:14;12.00;79.90
17333;DHT22;8784;50.94667800;7.08448400;2023-03-16T11:32:47;12.00;80.20
17333;DHT22;8784;50.94667800;7.08448400;2023-03-16T11:35:19;12.00;80.00
17333;DHT22;8784;50.94667800;7.08448400;2023-03-16T11:38:02;12.00;80.70
17333;DHT22;8784;50.94667800;7.08448400;2023-03-16T11:40:47;11.90;79.60
17333;DHT22;8784;50.94667800;7.08448400;2023-03-16T11:43:48;11.90;79.70
17333;DHT22;8784;50.94667800;7.08448400;2023-03-16T11:46:19;11.90;79.30
17333;DHT22;8784;50.94667800;7.08448400;2023-03-16T11:49:11;11.80;79.20
17333;DHT22;8784;50.94667800;7.08448400;2023-03-16T11:51:44;11.80;79.40
17333;DHT22;8784;50.94667800;7.08448400;2023-03-16T11:54:27;11.90;79.60
17333;DHT22;8784;50.94667800;7.08448400;2023-03-16T11:56:59;12.00;79.50
17333;DHT22;8784;50.94667800;7.08448400;2023-03-16T11:59:39;12.00;78.10
17333;DHT22;8784;50.94667800;7.08448400;2023-03-16T12:02:21;11.90;78.50
17333;DHT22;8784;50.94667800;7.08448400;2023-03-16T12:05:13;11.90;78.30
17333;DHT22;8784;50.94667800;7.08448400;2023-03-16T12:07:52;12.10;79.00
17333;DHT22;8784;50.94667800;7.08448400;2023-03-16T12:10:23;12.20;79.30
17333;DHT22;8784;50.94667800;7.08448400;2023-03-16T12:12:58;12.40;78.00
17333;DHT22;8784;50.94667800;7.08448400;2023-03-16T12:15:32;12.50;77.20
17333;DHT22;8784;50.94667800;7.08448400;2023-03-16T12:18:07;12.60;77.50
17333;DHT22;8784;50.94667800;7.08448400;2023-03-16T12:20:43;12.70;77.30
17333;DHT22;8784;50.94667800;7.08448400;2023-03-16T12:23:13;12.80;76.80
17333;DHT22;8784;50.94667800;7.08448400;2023-03-16T12:25:48;12.80;75.50
17333;DHT22;8784;50.94667800;7.08448400;2023-03-16T12:28:22;12.90;76.80
17333;DHT22;8784;50.94667800;7.08448400;2023-03-16T12:30:57;13.00;76.60
17333;DHT22;8784;50.94667800;7.08448400;2023-03-16T12:33:44;13.20;76.30
17333;DHT22;8784;50.94667800;7.08448400;2023-03-16T12:39:23;13.40;75.90
17333;DHT22;8784;50.94667800;7.08448400;2023-03-16T12:42:03;13.40;75.40
17333;DHT22;8784;50.94667800;7.08448400;2023-03-16T12:44:38;13.50;75.30
17333;DHT22;8784;50.94667800;7.08448400;2023-03-16T12:47:16;13.50;74.70
17333;DHT22;8784;50.94667800;7.08448400;2023-03-16T12:49:47;13.40;74.40
17333;DHT22;8784;50.94667800;7.08448400;2023-03-16T12:52:15;13.20;73.20
17333;DHT22;8784;50.94667800;7.08448400;2023-03-16T12:54:51;13.00;73.50
17333;DHT22;8784;50.94667800;7.08448400;2023-03-16T12:57:18;13.00;73.40
17333;DHT22;8784;50.94667800;7.08448400;2023-03-16T12:59:55;13.00;73.70
17333;DHT22;8784;50.94667800;7.08448400;2023-03-16T13:02:25;13.00;74.00
17333;DHT22;8784;50.94667800;7.08448400;2023-03-16T13:04:56;13.10;73.80
17333;DHT22;8784;50.94667800;7.08448400;2023-03-16T13:07:27;13.10;74.30
17333;DHT22;8784;50.94667800;7.08448400;2023-03-16T13:09:59;13.20;74.20
17333;DHT22;8784;50.94667800;7.08448400;2023-03-16T13:12:30;13.30;73.90
17333;DHT22;8784;50.94667800;7.08448400;2023-03-16T13:15:02;13.20;73.10
17333;DHT22;8784;50.94667800;7.08448400;2023-03-16T13:17:42;13.20;72.90
17333;DHT22;8784;50.94667800;7.08448400;2023-03-16T13:20:26;13.10;73.00
17333;DHT22;8784;50.94667800;7.08448400;2023-03-16T13:23:08;13.10;72.80
17333;DHT22;8784;50.94667800;7.08448400;2023-03-16T13:25:58;13.20;73.20
17333;DHT22;8784;50.94667800;7.08448400;2023-03-16T13:28:28;13.30;73.00
17333;DHT22;8784;50.94667800;7.08448400;2023-03-16T13:30:57;13.30;72.90
17333;DHT22;8784;50.94667800;7.08448400;2023-03-16T13:33:25;13.30;72.80
17333;DHT22;8784;50.94667800;7.08448400;2023-03-16T13:35:54;13.30;72.30
17333;DHT22;8784;50.94667800;7.08448400;2023-03-16T13:38:23;13.20;71.50
17333;DHT22;8784;50.94667800;7.08448400;2023-03-16T13:40:55;13.20;72.10
17333;DHT22;8784;50.94667800;7.08448400;2023-03-16T13:43:24;13.20;72.20
17333;DHT22;8784;50.94667800;7.08448400;2023-03-16T13:45:53;13.20;72.30
17333;DHT22;8784;50.94667800;7.08448400;2023-03-16T13:48:20;13.20;72.10
17333;DHT22;8784;50.94667800;7.08448400;2023-03-16T13:50:50;13.30;72.30
17333;DHT22;8784;50.94667800;7.08448400;2023-03-16T13:53:21;13.40;72.30
17333;DHT22;8784;50.94667800;7.08448400;2023-03-16T13:55:50;13.30;72.00
17333;DHT22;8784;50.94667800;7.08448400;2023-03-16T13:58:22;13.30;71.70
17333;DHT22;8784;50.94667800;7.08448400;2023-03-16T14:00:54;13.20;71.60